createdAt,value
2023-01-10T00:00:15.196Z,4.30
2023-01-10T00:01:15.129Z,3.90
2023-01-10T00:02:15.192Z,5.50
2023-01-10T00:03:15.143Z,4.80
2023-01-10T00:04:15.142Z,3.90
2023-01-10T00:05:15.116Z,4.00
2023-01-10T00:06:15.082Z,4.20
2023-01-10T00:07:15.089Z,4.50
2023-01-10T00:08:15.084Z,4.10
2023-01-10T00:09:15.058Z,4.20
2023-01-10T00:10:15.050Z,3.00
2023-01-10T00:11:15.033Z,5.20
2023-01-10T00:12:15.034Z,3.60
2023-01-10T00:13:15.034Z,3.40
2023-01-10T00:14:15.023Z,3.60
2023-01-10T00:15:15.006Z,5.10
2023-01-10T00:16:15.024Z,4.90
2023-01-10T00:17:14.982Z,3.10
2023-01-10T00:18:14.979Z,6.80
2023-01-10T00:19:14.963Z,4.20
2023-01-10T00:20:14.952Z,3.10
2023-01-10T00:21:14.964Z,3.80
2023-01-10T00:22:14.922Z,6.00
2023-01-10T00:23:14.936Z,3.70
2023-01-10T00:24:14.916Z,3.60
2023-01-10T00:25:14.903Z,4.40
2023-01-10T00:26:14.892Z,3.10
2023-01-10T00:27:14.879Z,4.30
2023-01-10T00:28:14.895Z,2.50
2023-01-10T00:29:14.855Z,4.70
2023-01-10T00:30:14.872Z,5.50
2023-01-10T00:31:14.866Z,3.50
2023-01-10T00:32:14.828Z,2.70
2023-01-10T00:33:14.821Z,2.50
2023-01-10T00:34:14.829Z,2.90
2023-01-10T00:35:14.828Z,2.20
2023-01-10T00:36:14.782Z,3.10
2023-01-10T00:37:14.797Z,4.50
2023-01-10T00:38:14.770Z,5.30
2023-01-10T00:39:14.783Z,4.00
2023-01-10T00:40:14.749Z,3.80
2023-01-10T00:41:14.805Z,2.60
2023-01-10T00:42:14.758Z,4.30
2023-01-10T00:43:14.729Z,4.20
2023-01-10T00:44:14.706Z,4.70
2023-01-10T00:45:14.725Z,3.80
2023-01-10T00:46:14.805Z,4.00
2023-01-10T00:47:14.690Z,3.90
2023-01-10T00:48:14.674Z,2.80
2023-01-10T00:49:14.680Z,3.30
2023-01-10T00:50:14.653Z,3.80
2023-01-10T00:51:14.646Z,4.40
2023-01-10T00:52:14.627Z,2.50
2023-01-10T00:53:14.611Z,4.10
2023-01-10T00:54:15.632Z,3.00
2023-01-10T00:55:14.611Z,5.10
2023-01-10T00:56:14.589Z,4.30
2023-01-10T00:57:14.593Z,3.60
2023-01-10T00:58:14.573Z,3.40
2023-01-10T00:59:14.558Z,3.60
2023-01-10T01:00:15.570Z,5.50
2023-01-10T01:01:14.610Z,4.80
2023-01-10T01:02:14.744Z,3.70
2023-01-10T01:03:14.533Z,2.10
2023-01-10T01:04:14.535Z,3.80
2023-01-10T01:05:14.515Z,2.70
2023-01-10T01:06:14.529Z,3.30
2023-01-10T01:07:14.566Z,4.30
2023-01-10T01:08:14.479Z,3.40
2023-01-10T01:09:14.472Z,2.90
2023-01-10T01:10:14.465Z,4.50
2023-01-10T01:11:14.459Z,3.90
2023-01-10T01:12:14.447Z,3.20
2023-01-10T01:13:14.436Z,3.90
2023-01-10T01:14:14.419Z,3.60
2023-01-10T01:15:14.413Z,3.60
2023-01-10T01:16:14.465Z,4.20
2023-01-10T01:17:14.421Z,3.30
2023-01-10T01:18:15.412Z,2.50
2023-01-10T01:19:14.393Z,4.00
2023-01-10T01:20:14.361Z,3.30
2023-01-10T01:21:14.386Z,4.00
2023-01-10T01:22:14.343Z,3.40
2023-01-10T01:23:14.329Z,3.50
2023-01-10T01:24:14.337Z,3.80
2023-01-10T01:25:14.312Z,3.90
2023-01-10T01:26:14.336Z,3.00
2023-01-10T01:27:14.355Z,4.70
2023-01-10T01:28:14.288Z,2.10
2023-01-10T01:29:14.495Z,4.30
2023-01-10T01:30:14.275Z,2.60
2023-01-10T01:31:46.159Z,4.90
2023-01-10T01:32:14.256Z,4.90
2023-01-10T01:33:14.233Z,3.10
2023-01-10T01:34:14.221Z,2.60
2023-01-10T01:35:14.213Z,4.60
2023-01-10T01:36:14.210Z,4.70
2023-01-10T01:37:14.201Z,5.50
2023-01-10T01:38:14.200Z,4.30
2023-01-10T01:39:14.166Z,3.20
2023-01-10T01:40:14.165Z,2.90
2023-01-10T01:41:14.157Z,3.30
2023-01-10T01:42:14.141Z,3.20
2023-01-10T01:43:14.133Z,4.20
2023-01-10T01:44:14.143Z,3.70
2023-01-10T01:45:14.121Z,3.40
2023-01-10T01:46:14.110Z,4.20
2023-01-10T01:47:14.090Z,3.70
2023-01-10T01:48:14.084Z,2.30
2023-01-10T01:49:14.105Z,4.60
2023-01-10T01:50:14.069Z,3.60
2023-01-10T01:51:14.057Z,3.90
2023-01-10T01:52:14.036Z,4.60
2023-01-10T01:53:14.030Z,3.60
2023-01-10T01:54:14.026Z,4.00
2023-01-10T01:55:14.023Z,5.70
2023-01-10T01:56:14.011Z,4.00
2023-01-10T01:57:13.998Z,3.70
2023-01-10T01:58:13.986Z,4.90
2023-01-10T01:59:13.993Z,4.90
2023-01-10T02:00:13.960Z,3.20
2023-01-10T02:01:14.051Z,2.60
2023-01-10T02:02:14.004Z,2.50
2023-01-10T02:03:13.951Z,4.10
2023-01-10T02:04:13.990Z,3.70
2023-01-10T02:05:13.915Z,4.00
2023-01-10T02:06:13.965Z,3.40
2023-01-10T02:07:13.901Z,2.80
2023-01-10T02:08:13.886Z,3.00
2023-01-10T02:09:13.904Z,4.10
2023-01-10T02:10:13.863Z,3.10
2023-01-10T02:11:13.848Z,3.80
2023-01-10T02:12:13.848Z,3.60
2023-01-10T02:13:13.829Z,4.10
2023-01-10T02:14:13.858Z,1.90
2023-01-10T02:15:13.817Z,1.90
2023-01-10T02:16:13.865Z,3.70
2023-01-10T02:17:13.803Z,3.30
2023-01-10T02:18:13.778Z,2.10
2023-01-10T02:19:13.770Z,2.70
2023-01-10T02:20:13.802Z,2.90
2023-01-10T02:21:13.758Z,3.40
2023-01-10T02:22:13.748Z,3.20
2023-01-10T02:23:13.733Z,3.10
2023-01-10T02:24:13.718Z,4.10
2023-01-10T02:25:14.736Z,2.20
2023-01-10T02:26:13.700Z,3.50
2023-01-10T02:27:13.693Z,2.60
2023-01-10T02:28:13.690Z,4.70
2023-01-10T02:29:13.683Z,4.30
2023-01-10T02:30:13.688Z,3.00
2023-01-10T02:31:13.689Z,4.40
2023-01-10T02:32:13.659Z,3.40
2023-01-10T02:33:13.641Z,4.80
2023-01-10T02:34:13.677Z,4.90
2023-01-10T02:35:13.616Z,3.60
2023-01-10T02:36:13.618Z,4.10
2023-01-10T02:37:13.606Z,3.30
2023-01-10T02:38:13.585Z,4.50
2023-01-10T02:39:13.607Z,4.60
2023-01-10T02:40:13.568Z,3.10
2023-01-10T02:41:13.554Z,4.70
2023-01-10T02:42:13.544Z,3.30
2023-01-10T02:43:13.532Z,5.30
2023-01-10T02:44:13.544Z,3.90
2023-01-10T02:45:13.501Z,3.80
2023-01-10T02:46:13.545Z,4.10
2023-01-10T02:47:13.506Z,5.60
2023-01-10T02:48:13.491Z,3.10
2023-01-10T02:49:13.481Z,3.00
2023-01-10T02:50:13.470Z,4.50
2023-01-10T02:51:13.448Z,4.20
2023-01-10T02:52:13.463Z,3.50
2023-01-10T02:53:13.449Z,4.10
2023-01-10T02:54:13.437Z,4.10
2023-01-10T02:55:13.411Z,4.60
2023-01-10T02:56:13.400Z,5.40
2023-01-10T02:57:13.391Z,4.80
2023-01-10T02:58:13.406Z,3.10
2023-01-10T02:59:13.395Z,4.00
2023-01-10T03:00:13.354Z,4.50
2023-01-10T03:01:13.487Z,4.10
2023-01-10T03:02:13.393Z,4.30
2023-01-10T03:03:13.334Z,3.80
2023-01-10T03:04:13.342Z,4.80
2023-01-10T03:05:13.366Z,6.00
2023-01-10T03:06:13.331Z,3.90
2023-01-10T03:07:13.355Z,4.70
2023-01-10T03:08:13.283Z,4.00
2023-01-10T03:09:13.281Z,10.60
2023-01-10T03:10:13.264Z,4.10
2023-01-10T03:11:13.281Z,4.00
2023-01-10T03:12:13.244Z,4.60
2023-01-10T03:13:13.238Z,4.30
2023-01-10T03:14:13.230Z,7.40
2023-01-10T03:15:13.220Z,4.50
2023-01-10T03:16:13.240Z,4.10
2023-01-10T03:17:13.208Z,6.80
2023-01-10T03:18:13.199Z,4.10
2023-01-10T03:19:13.195Z,3.90
2023-01-10T03:20:13.174Z,4.50
2023-01-10T03:21:13.174Z,4.50
2023-01-10T03:22:14.159Z,4.70
2023-01-10T03:23:13.147Z,3.90
2023-01-10T03:24:13.134Z,4.30
2023-01-10T03:25:13.149Z,3.30
2023-01-10T03:26:13.109Z,6.50
2023-01-10T03:27:13.104Z,3.70
2023-01-10T03:28:13.092Z,5.40
2023-01-10T03:29:13.082Z,3.60
2023-01-10T03:30:13.103Z,4.30
2023-01-10T03:31:13.083Z,5.80
2023-01-10T03:32:13.054Z,4.20
2023-01-10T03:33:13.128Z,4.10
2023-01-10T03:34:13.045Z,3.90
2023-01-10T03:35:13.027Z,6.20
2023-01-10T03:36:13.048Z,3.60
2023-01-10T03:37:13.014Z,7.20
2023-01-10T03:38:12.989Z,4.30
2023-01-10T03:39:12.993Z,4.30
2023-01-10T03:40:12.984Z,6.80
2023-01-10T03:41:12.977Z,3.50
2023-01-10T03:42:12.986Z,5.10
2023-01-10T03:43:12.952Z,3.80
2023-01-10T03:44:12.955Z,5.70
2023-01-10T03:45:12.952Z,5.20
2023-01-10T03:46:12.965Z,4.60
2023-01-10T03:47:12.906Z,3.60
2023-01-10T03:48:12.903Z,3.90
2023-01-10T03:49:12.890Z,4.40
2023-01-10T03:50:12.916Z,3.60
2023-01-10T03:51:12.876Z,5.90
2023-01-10T03:52:12.886Z,4.60
2023-01-10T03:53:12.854Z,5.90
2023-01-10T03:54:12.843Z,4.80
2023-01-10T03:55:12.865Z,5.80
2023-01-10T03:56:12.838Z,5.40
2023-01-10T03:57:12.822Z,5.20
2023-01-10T03:58:12.824Z,5.70
2023-01-10T03:59:12.790Z,4.40
2023-01-10T04:00:12.796Z,5.60
2023-01-10T04:01:12.840Z,7.00
2023-01-10T04:02:12.787Z,6.90
2023-01-10T04:03:12.763Z,7.20
2023-01-10T04:04:12.825Z,5.50
2023-01-10T04:05:12.767Z,5.30
2023-01-10T04:06:12.743Z,4.90
2023-01-10T04:07:12.709Z,6.30
2023-01-10T04:08:12.707Z,5.80
2023-01-10T04:09:12.690Z,3.50
2023-01-10T04:10:12.708Z,5.40
2023-01-10T04:11:12.674Z,5.20
2023-01-10T04:12:12.668Z,5.20
2023-01-10T04:13:12.670Z,6.30
2023-01-10T04:14:12.658Z,5.90
2023-01-10T04:15:12.661Z,4.80
2023-01-10T04:16:12.663Z,5.80
2023-01-10T04:17:12.616Z,6.70
2023-01-10T04:18:12.609Z,6.30
2023-01-10T04:19:12.608Z,5.00
2023-01-10T04:20:12.597Z,4.50
2023-01-10T04:21:12.596Z,5.40
2023-01-10T04:22:12.582Z,5.40
2023-01-10T04:23:12.588Z,5.30
2023-01-10T04:24:12.553Z,4.50
2023-01-10T04:25:12.542Z,5.90
2023-01-10T04:26:12.562Z,6.30
2023-01-10T04:27:12.534Z,4.70
2023-01-10T04:28:12.520Z,5.00
2023-01-10T04:29:12.503Z,5.90
2023-01-10T04:30:12.491Z,8.50
2023-01-10T04:31:12.547Z,5.50
2023-01-10T04:32:12.476Z,5.70
2023-01-10T04:33:12.479Z,5.00
2023-01-10T04:34:12.455Z,4.80
2023-01-10T04:35:12.457Z,5.20
2023-01-10T04:36:12.464Z,4.80
2023-01-10T04:37:12.434Z,5.10
2023-01-10T04:38:12.410Z,5.10
2023-01-10T04:39:12.417Z,6.80
2023-01-10T04:40:12.395Z,4.20
2023-01-10T04:41:12.401Z,5.00
2023-01-10T04:42:12.379Z,6.00
2023-01-10T04:43:12.377Z,3.40
2023-01-10T04:44:13.367Z,4.40
2023-01-10T04:45:12.352Z,5.80
2023-01-10T04:46:12.351Z,5.00
2023-01-10T04:47:12.320Z,6.00
2023-01-10T04:48:12.377Z,3.40
2023-01-10T04:49:12.334Z,6.00
2023-01-10T04:50:12.321Z,5.80
2023-01-10T04:51:12.297Z,5.50
2023-01-10T04:52:12.285Z,5.30
2023-01-10T04:53:12.269Z,5.70
2023-01-10T04:54:12.281Z,5.90
2023-01-10T04:55:12.269Z,3.70
2023-01-10T04:56:12.236Z,5.50
2023-01-10T04:57:12.233Z,5.80
2023-01-10T04:58:12.229Z,5.60
2023-01-10T04:59:12.216Z,5.50
2023-01-10T05:00:12.216Z,8.20
2023-01-10T05:01:12.264Z,5.30
2023-01-10T05:02:12.221Z,5.00
2023-01-10T05:03:12.244Z,6.80
2023-01-10T05:04:12.166Z,6.80
2023-01-10T05:05:12.148Z,7.00
2023-01-10T05:06:12.144Z,5.80
2023-01-10T05:07:12.132Z,6.70
2023-01-10T05:08:12.175Z,5.90
2023-01-10T05:09:12.150Z,6.70
2023-01-10T05:10:12.104Z,5.60
2023-01-10T05:11:12.149Z,6.20
2023-01-10T05:12:12.090Z,5.70
2023-01-10T05:13:12.083Z,5.50
2023-01-10T05:14:12.061Z,6.30
2023-01-10T05:15:12.065Z,6.70
2023-01-10T05:16:12.099Z,5.80
2023-01-10T05:17:12.039Z,9.20
2023-01-10T05:18:12.030Z,6.00
2023-01-10T05:19:12.020Z,7.40
2023-01-10T05:20:12.011Z,8.60
2023-01-10T05:21:12.000Z,6.60
2023-01-10T05:22:12.008Z,5.60
2023-01-10T05:23:11.985Z,5.30
2023-01-10T05:24:11.974Z,5.10
2023-01-10T05:25:11.960Z,7.70
2023-01-10T05:26:11.949Z,5.40
2023-01-10T05:27:11.962Z,6.70
2023-01-10T05:28:11.926Z,6.40
2023-01-10T05:29:11.940Z,5.80
2023-01-10T05:30:11.913Z,6.70
2023-01-10T05:31:11.903Z,5.30
2023-01-10T05:32:11.909Z,5.30
2023-01-10T05:33:11.886Z,7.70
2023-01-10T05:34:11.870Z,7.70
2023-01-10T05:35:11.863Z,7.50
2023-01-10T05:36:11.853Z,5.90
2023-01-10T05:37:11.830Z,5.90
2023-01-10T05:38:11.863Z,7.60
2023-01-10T05:39:11.833Z,6.70
2023-01-10T05:40:11.811Z,8.20
2023-01-10T05:41:11.816Z,7.00
2023-01-10T05:42:11.802Z,8.30
2023-01-10T05:43:11.812Z,6.50
2023-01-10T05:44:12.781Z,8.70
2023-01-10T05:45:11.782Z,6.90
2023-01-10T05:46:11.835Z,7.20
2023-01-10T05:47:11.741Z,8.40
2023-01-10T05:48:11.774Z,8.50
2023-01-10T05:49:11.725Z,7.30
2023-01-10T05:50:11.720Z,7.40
2023-01-10T05:51:11.719Z,7.90
2023-01-10T05:52:11.711Z,8.20
2023-01-10T05:53:11.714Z,6.20
2023-01-10T05:54:11.688Z,6.80
2023-01-10T05:55:11.676Z,7.50
2023-01-10T05:56:11.675Z,7.40
2023-01-10T05:57:11.657Z,8.00
2023-01-10T05:58:11.644Z,8.60
2023-01-10T05:59:23.748Z,9.50
2023-01-10T06:00:13.628Z,8.90
2023-01-10T06:01:11.669Z,6.90
2023-01-10T06:02:11.684Z,8.30
2023-01-10T06:03:11.656Z,7.80
2023-01-10T06:04:11.600Z,8.50
2023-01-10T06:05:11.586Z,6.50
2023-01-10T06:06:11.563Z,8.50
2023-01-10T06:07:11.565Z,9.10
2023-01-10T06:08:11.579Z,9.20
2023-01-10T06:09:11.543Z,8.00
2023-01-10T06:10:11.530Z,8.40
2023-01-10T06:11:11.521Z,9.20
2023-01-10T06:12:11.517Z,7.70
2023-01-10T06:13:11.532Z,6.90
2023-01-10T06:14:11.506Z,7.40
2023-01-10T06:15:11.489Z,7.20
2023-01-10T06:16:11.592Z,6.30
2023-01-10T06:17:11.465Z,8.90
2023-01-10T06:18:12.536Z,9.60
2023-01-10T06:19:12.455Z,8.80
2023-01-10T06:20:11.437Z,8.10
2023-01-10T06:21:11.458Z,7.90
2023-01-10T06:22:11.414Z,8.30
2023-01-10T06:23:11.427Z,8.80
2023-01-10T06:24:11.412Z,9.70
2023-01-10T06:25:11.408Z,8.00
2023-01-10T06:26:11.378Z,8.40
2023-01-10T06:27:11.408Z,7.80
2023-01-10T06:28:11.357Z,7.70
2023-01-10T06:29:11.382Z,7.80
2023-01-10T06:30:11.331Z,8.80
2023-01-10T06:31:11.432Z,8.50
2023-01-10T06:32:11.333Z,8.70
2023-01-10T06:33:11.373Z,9.50
2023-01-10T06:34:11.313Z,7.50
2023-01-10T06:35:11.300Z,11.70
2023-01-10T06:36:11.304Z,11.00
2023-01-10T06:37:11.274Z,8.30
2023-01-10T06:38:11.273Z,7.90
2023-01-10T06:39:11.286Z,8.60
2023-01-10T06:40:11.260Z,8.60
2023-01-10T06:41:11.238Z,8.50
2023-01-10T06:42:11.226Z,8.60
2023-01-10T06:43:11.219Z,8.80
2023-01-10T06:44:11.238Z,7.00
2023-01-10T06:45:11.199Z,7.40
2023-01-10T06:46:11.224Z,9.40
2023-01-10T06:47:11.173Z,9.50
2023-01-10T06:48:11.162Z,8.60
2023-01-10T06:49:11.174Z,7.20
2023-01-10T06:50:11.147Z,8.40
2023-01-10T06:51:11.132Z,6.60
2023-01-10T06:52:11.132Z,9.40
2023-01-10T06:53:11.110Z,9.90
2023-01-10T06:54:11.133Z,11.30
2023-01-10T06:55:11.114Z,12.00
2023-01-10T06:56:11.093Z,9.20
2023-01-10T06:57:11.088Z,8.70
2023-01-10T06:58:11.094Z,8.30
2023-01-10T06:59:11.069Z,9.40
2023-01-10T07:00:11.043Z,13.10
2023-01-10T07:01:11.127Z,9.40
2023-01-10T07:02:11.114Z,9.80
2023-01-10T07:03:11.011Z,12.40
2023-01-10T07:04:11.016Z,11.70
2023-01-10T07:05:11.668Z,12.00
2023-01-10T07:06:12.016Z,9.90
2023-01-10T07:07:10.976Z,10.30
2023-01-10T07:08:10.969Z,12.50
2023-01-10T07:09:10.957Z,12.80
2023-01-10T07:10:10.963Z,11.40
2023-01-10T07:11:10.932Z,13.50
2023-01-10T07:12:10.928Z,11.90
2023-01-10T07:13:10.934Z,10.40
2023-01-10T07:14:10.931Z,11.40
2023-01-10T07:15:10.888Z,12.00
2023-01-10T07:16:10.918Z,10.60
2023-01-10T07:17:10.883Z,11.50
2023-01-10T07:18:12.767Z,13.30
2023-01-10T07:19:11.879Z,9.80
2023-01-10T07:20:10.862Z,12.90
2023-01-10T07:21:10.841Z,9.70
2023-01-10T07:22:10.829Z,11.20
2023-01-10T07:23:10.813Z,11.70
2023-01-10T07:24:11.835Z,10.70
2023-01-10T07:25:10.799Z,12.10
2023-01-10T07:26:10.831Z,10.20
2023-01-10T07:27:10.782Z,11.40
2023-01-10T07:28:10.772Z,13.10
2023-01-10T07:29:10.789Z,10.60
2023-01-10T07:30:10.764Z,12.10
2023-01-10T07:31:10.780Z,10.40
2023-01-10T07:32:42.640Z,11.70
2023-01-10T07:33:10.731Z,10.40
2023-01-10T07:34:10.735Z,12.40
2023-01-10T07:35:10.714Z,12.20
2023-01-10T07:36:10.713Z,10.70
2023-01-10T07:37:10.687Z,10.30
2023-01-10T07:38:10.664Z,11.10
2023-01-10T07:39:10.671Z,10.80
2023-01-10T07:40:10.676Z,10.20
2023-01-10T07:41:10.650Z,9.30
2023-01-10T07:42:10.634Z,11.00
2023-01-10T07:43:10.629Z,10.70
2023-01-10T07:44:10.632Z,11.00
2023-01-10T07:45:10.610Z,8.90
2023-01-10T07:46:10.632Z,9.40
2023-01-10T07:47:10.613Z,10.20
2023-01-10T07:48:10.577Z,8.80
2023-01-10T07:49:10.592Z,8.00
2023-01-10T07:50:10.555Z,9.30
2023-01-10T07:51:10.533Z,9.30
2023-01-10T07:52:10.553Z,10.60
2023-01-10T07:53:10.524Z,11.30
2023-01-10T07:54:10.526Z,10.20
2023-01-10T07:55:10.515Z,11.20
2023-01-10T07:56:10.518Z,10.90
2023-01-10T07:57:10.506Z,10.70
2023-01-10T07:58:10.508Z,10.30
2023-01-10T07:59:10.481Z,12.50
2023-01-10T08:00:10.465Z,12.70
2023-01-10T08:01:10.493Z,14.00
2023-01-10T08:02:10.517Z,12.20
2023-01-10T08:03:10.531Z,9.50
2023-01-10T08:04:10.415Z,8.60
2023-01-10T08:05:10.418Z,12.70
2023-01-10T08:06:10.477Z,9.80
2023-01-10T08:07:10.398Z,10.10
2023-01-10T08:08:10.399Z,8.50
2023-01-10T08:09:10.385Z,9.60
2023-01-10T08:10:10.374Z,11.40
2023-01-10T08:11:10.381Z,9.50
2023-01-10T08:12:10.339Z,8.90
2023-01-10T08:13:18.835Z,9.50
2023-01-10T08:14:12.370Z,9.80
2023-01-10T08:15:10.337Z,9.90
2023-01-10T08:16:10.352Z,8.60
2023-01-10T08:17:10.289Z,7.80
2023-01-10T08:18:10.301Z,10.80
2023-01-10T08:19:10.298Z,8.20
2023-01-10T08:20:10.266Z,7.80
2023-01-10T08:21:10.274Z,6.60
2023-01-10T08:22:10.247Z,8.70
2023-01-10T08:23:10.240Z,7.60
2023-01-10T08:24:10.230Z,10.60
2023-01-10T08:25:10.219Z,7.70
2023-01-10T08:26:10.223Z,9.50
2023-01-10T08:27:10.248Z,7.10
2023-01-10T08:28:10.181Z,8.50
2023-01-10T08:29:10.175Z,8.50
2023-01-10T08:30:10.169Z,7.30
2023-01-10T08:31:10.187Z,9.60
2023-01-10T08:32:10.167Z,8.00
2023-01-10T08:33:10.128Z,7.50
2023-01-10T08:34:10.140Z,7.20
2023-01-10T08:35:10.121Z,10.40
2023-01-10T08:36:10.110Z,10.30
2023-01-10T08:37:10.112Z,7.60
2023-01-10T08:38:10.079Z,9.00
2023-01-10T08:39:10.111Z,10.30
2023-01-10T08:40:10.073Z,9.70
2023-01-10T08:41:10.067Z,9.80
2023-01-10T08:42:10.038Z,9.10
2023-01-10T08:43:11.030Z,7.10
2023-01-10T08:44:10.047Z,8.70
2023-01-10T08:45:10.020Z,10.40
2023-01-10T08:46:10.085Z,9.00
2023-01-10T08:47:09.985Z,8.60
2023-01-10T08:48:10.001Z,8.40
2023-01-10T08:49:09.997Z,7.40
2023-01-10T08:50:09.968Z,8.60
2023-01-10T08:51:09.966Z,8.90
2023-01-10T08:52:09.965Z,9.40
2023-01-10T08:53:09.941Z,10.50
2023-01-10T08:54:09.924Z,7.40
2023-01-10T08:55:09.922Z,8.30
2023-01-10T08:56:09.944Z,12.10
2023-01-10T08:57:10.077Z,7.40
2023-01-10T08:58:09.895Z,7.60
2023-01-10T08:59:10.068Z,8.20
2023-01-10T09:00:09.896Z,8.70
2023-01-10T09:01:10.031Z,7.90
2023-01-10T09:02:09.905Z,10.30
2023-01-10T09:03:09.920Z,10.10
2023-01-10T09:04:09.832Z,10.90
2023-01-10T09:05:18.505Z,10.80
2023-01-10T09:06:11.814Z,9.00
2023-01-10T09:07:09.884Z,7.50
2023-01-10T09:08:09.803Z,6.30
2023-01-10T09:09:09.820Z,5.10
2023-01-10T09:10:09.937Z,6.80
2023-01-10T09:11:09.803Z,4.30
2023-01-10T09:12:10.053Z,9.30
2023-01-10T09:13:09.773Z,7.20
2023-01-10T09:14:09.745Z,7.20
2023-01-10T09:15:09.743Z,6.60
2023-01-10T09:16:09.783Z,7.50
2023-01-10T09:17:09.773Z,8.30
2023-01-10T09:18:09.716Z,6.40
2023-01-10T09:19:09.686Z,10.90
2023-01-10T09:20:09.770Z,9.20
2023-01-10T09:21:09.667Z,7.80
2023-01-10T09:22:09.712Z,9.60
2023-01-10T09:23:09.729Z,5.50
2023-01-10T09:24:09.677Z,6.80
2023-01-10T09:25:09.640Z,7.90
2023-01-10T09:26:09.650Z,8.10
2023-01-10T09:27:09.609Z,7.70
2023-01-10T09:28:09.619Z,8.00
2023-01-10T09:29:09.603Z,8.20
2023-01-10T09:30:09.595Z,9.50
2023-01-10T09:31:09.645Z,7.30
2023-01-10T09:32:09.806Z,7.90
2023-01-10T09:33:09.548Z,7.40
2023-01-10T09:34:09.867Z,7.20
2023-01-10T09:35:09.539Z,6.80
2023-01-10T09:36:10.271Z,8.20
2023-01-10T09:37:10.549Z,7.90
2023-01-10T09:38:09.543Z,8.50
2023-01-10T09:39:09.500Z,5.30
2023-01-10T09:40:09.488Z,9.60
2023-01-10T09:41:09.464Z,10.00
2023-01-10T09:42:09.448Z,8.30
2023-01-10T09:43:09.467Z,6.20
2023-01-10T09:44:09.489Z,7.90
2023-01-10T09:45:09.420Z,6.30
2023-01-10T09:46:09.420Z,6.50
2023-01-10T09:47:21.500Z,7.40
2023-01-10T09:48:11.413Z,5.90
2023-01-10T09:49:09.455Z,9.90
2023-01-10T09:50:09.396Z,5.30
2023-01-10T09:51:09.427Z,7.40
2023-01-10T09:52:09.395Z,6.60
2023-01-10T09:53:09.377Z,9.10
2023-01-10T09:54:12.741Z,7.50
2023-01-10T09:55:10.373Z,6.20
2023-01-10T09:56:09.350Z,6.40
2023-01-10T09:57:09.343Z,6.70
2023-01-10T09:58:09.319Z,7.50
2023-01-10T09:59:09.305Z,9.20
2023-01-10T10:00:09.289Z,9.90
2023-01-10T10:01:09.295Z,7.10
2023-01-10T10:02:09.290Z,6.80
2023-01-10T10:03:09.264Z,8.70
2023-01-10T10:04:10.331Z,10.10
2023-01-10T10:05:09.262Z,6.10
2023-01-10T10:06:12.351Z,6.70
2023-01-10T10:07:10.245Z,6.30
2023-01-10T10:08:09.245Z,7.30
2023-01-10T10:09:09.211Z,6.50
2023-01-10T10:10:09.203Z,6.60
2023-01-10T10:11:09.188Z,5.60
2023-01-10T10:12:09.226Z,6.40
2023-01-10T10:13:11.590Z,6.50
2023-01-10T10:14:09.193Z,4.60
2023-01-10T10:15:09.171Z,9.20
2023-01-10T10:16:09.201Z,6.10
2023-01-10T10:17:09.222Z,7.40
2023-01-10T10:18:09.160Z,3.80
2023-01-10T10:19:09.120Z,8.40
2023-01-10T10:20:09.152Z,7.20
2023-01-10T10:21:09.091Z,9.00
2023-01-10T10:22:09.113Z,8.20
2023-01-10T10:23:09.079Z,7.50
2023-01-10T10:24:09.081Z,5.50
2023-01-10T10:25:09.067Z,6.10
2023-01-10T10:26:09.098Z,10.00
2023-01-10T10:27:09.029Z,8.70
2023-01-10T10:28:09.015Z,5.40
2023-01-10T10:29:09.021Z,7.20
2023-01-10T10:30:08.994Z,7.20
2023-01-10T10:31:09.087Z,6.00
2023-01-10T10:32:08.974Z,6.60
2023-01-10T10:33:08.962Z,7.00
2023-01-10T10:34:08.965Z,7.40
2023-01-10T10:35:08.948Z,7.10
2023-01-10T10:36:08.950Z,6.30
2023-01-10T10:37:08.951Z,7.40
2023-01-10T10:38:08.923Z,5.90
2023-01-10T10:39:08.923Z,7.90
2023-01-10T10:40:08.904Z,7.10
2023-01-10T10:41:08.895Z,9.10
2023-01-10T10:42:08.886Z,8.00
2023-01-10T10:43:08.903Z,8.60
2023-01-10T10:44:08.882Z,7.80
2023-01-10T10:45:08.850Z,7.20
2023-01-10T10:46:08.928Z,8.30
2023-01-10T10:47:08.826Z,5.60
2023-01-10T10:48:08.823Z,8.00
2023-01-10T10:49:08.841Z,6.50
2023-01-10T10:50:08.813Z,9.40
2023-01-10T10:51:08.826Z,10.10
2023-01-10T10:52:08.797Z,8.70
2023-01-10T10:53:08.768Z,5.70
2023-01-10T10:54:08.798Z,7.60
2023-01-10T10:55:08.765Z,10.80
2023-01-10T10:56:08.743Z,10.00
2023-01-10T10:57:08.736Z,9.50
2023-01-10T10:58:08.743Z,6.00
2023-01-10T10:59:08.712Z,8.70
2023-01-10T11:00:08.719Z,10.10
2023-01-10T11:01:08.792Z,7.40
2023-01-10T11:02:08.731Z,11.30
2023-01-10T11:03:08.682Z,9.30
2023-01-10T11:04:08.683Z,8.90
2023-01-10T11:05:08.722Z,7.70
2023-01-10T11:06:08.640Z,7.30
2023-01-10T11:07:08.629Z,8.90
2023-01-10T11:08:08.624Z,8.00
2023-01-10T11:09:08.645Z,9.20
2023-01-10T11:10:08.604Z,8.40
2023-01-10T11:11:08.585Z,10.80
2023-01-10T11:12:08.577Z,9.90
2023-01-10T11:13:08.560Z,7.70
2023-01-10T11:14:08.576Z,7.70
2023-01-10T11:15:08.602Z,9.60
2023-01-10T11:16:09.628Z,10.40
2023-01-10T11:17:08.532Z,9.60
2023-01-10T11:18:08.519Z,5.50
2023-01-10T11:19:08.531Z,8.20
2023-01-10T11:20:08.494Z,6.60
2023-01-10T11:21:08.501Z,6.10
2023-01-10T11:22:08.468Z,8.70
2023-01-10T11:23:08.467Z,6.70
2023-01-10T11:24:08.501Z,9.30
2023-01-10T11:25:08.447Z,6.20
2023-01-10T11:26:08.460Z,10.60
2023-01-10T11:27:08.447Z,9.70
2023-01-10T11:28:11.030Z,9.90
2023-01-10T11:29:08.408Z,7.90
2023-01-10T11:30:08.418Z,9.70
2023-01-10T11:31:08.383Z,12.10
2023-01-10T11:32:08.372Z,8.00
2023-01-10T11:33:08.371Z,8.70
2023-01-10T11:34:08.455Z,8.70
2023-01-10T11:35:08.389Z,6.60
2023-01-10T11:36:08.337Z,7.40
2023-01-10T11:37:08.327Z,9.30
2023-01-10T11:38:08.325Z,8.20
2023-01-10T11:39:08.338Z,6.60
2023-01-10T11:40:08.380Z,10.90
2023-01-10T11:41:08.284Z,8.30
2023-01-10T11:42:08.277Z,6.60
2023-01-10T11:43:08.287Z,8.30
2023-01-10T11:44:08.269Z,9.80
2023-01-10T11:45:08.265Z,8.80
2023-01-10T11:46:08.319Z,9.70
2023-01-10T11:47:08.221Z,7.30
2023-01-10T11:48:08.242Z,13.00
2023-01-10T11:49:08.949Z,10.40
2023-01-10T11:50:08.204Z,13.20
2023-01-10T11:51:08.188Z,9.00
2023-01-10T11:52:08.173Z,8.30
2023-01-10T11:53:08.259Z,7.80
2023-01-10T11:54:08.162Z,9.60
2023-01-10T11:55:09.259Z,9.20
2023-01-10T11:56:08.148Z,8.50
2023-01-10T11:57:08.124Z,8.90
2023-01-10T11:58:08.177Z,8.90
2023-01-10T11:59:08.104Z,8.30
2023-01-10T12:00:08.084Z,10.40
2023-01-10T12:01:08.150Z,9.40
2023-01-10T12:02:08.117Z,8.70
2023-01-10T12:03:08.073Z,12.30
2023-01-10T12:04:08.112Z,14.90
2023-01-10T12:05:08.070Z,10.00
2023-01-10T12:06:08.047Z,10.70
2023-01-10T12:07:09.391Z,9.10
2023-01-10T12:08:09.038Z,6.60
2023-01-10T12:09:08.017Z,10.40
2023-01-10T12:10:08.017Z,10.40
2023-01-10T12:11:07.995Z,10.00
2023-01-10T12:12:08.000Z,13.70
2023-01-10T12:13:08.039Z,10.90
2023-01-10T12:14:07.965Z,6.90
2023-01-10T12:15:07.950Z,10.60
2023-01-10T12:16:07.951Z,9.10
2023-01-10T12:17:08.012Z,8.00
2023-01-10T12:18:07.952Z,8.40
2023-01-10T12:19:07.957Z,12.00
2023-01-10T12:20:07.921Z,8.80
2023-01-10T12:21:07.899Z,9.20
2023-01-10T12:22:07.894Z,8.00
2023-01-10T12:23:07.889Z,9.20
2023-01-10T12:24:07.887Z,7.80
2023-01-10T12:25:07.857Z,8.10
2023-01-10T12:26:12.249Z,9.50
2023-01-10T12:27:08.852Z,11.00
2023-01-10T12:28:07.888Z,10.70
2023-01-10T12:29:07.823Z,9.80
2023-01-10T12:30:07.814Z,8.80
2023-01-10T12:31:07.905Z,6.90
2023-01-10T12:32:07.793Z,11.10
2023-01-10T12:33:07.813Z,8.30
2023-01-10T12:34:07.782Z,8.60
2023-01-10T12:35:07.764Z,7.70
2023-01-10T12:36:07.758Z,10.30
2023-01-10T12:37:07.750Z,10.60
2023-01-10T12:38:07.726Z,9.60
2023-01-10T12:39:09.471Z,10.20
2023-01-10T12:40:07.728Z,9.70
2023-01-10T12:41:07.700Z,10.50
2023-01-10T12:42:07.692Z,8.90
2023-01-10T12:43:07.713Z,9.50
2023-01-10T12:44:07.686Z,8.70
2023-01-10T12:45:07.675Z,7.70
2023-01-10T12:46:21.821Z,9.90
2023-01-10T12:47:12.954Z,8.10
2023-01-10T12:48:07.650Z,10.20
2023-01-10T12:49:07.649Z,8.00
2023-01-10T12:50:07.631Z,8.20
2023-01-10T12:51:07.683Z,7.90
2023-01-10T12:52:07.590Z,6.80
2023-01-10T12:53:07.581Z,8.00
2023-01-10T12:54:07.598Z,7.70
2023-01-10T12:55:07.593Z,8.50
2023-01-10T12:56:07.561Z,8.30
2023-01-10T12:57:07.534Z,8.20
2023-01-10T12:58:07.580Z,9.50
2023-01-10T12:59:07.534Z,9.90
2023-01-10T13:00:07.523Z,8.30
2023-01-10T13:01:07.643Z,7.70
2023-01-10T13:02:07.701Z,8.00
2023-01-10T13:03:07.490Z,7.00
2023-01-10T13:04:07.533Z,9.60
2023-01-10T13:05:07.480Z,6.60
2023-01-10T13:06:07.463Z,9.70
2023-01-10T13:07:07.501Z,8.00
2023-01-10T13:08:07.449Z,9.10
2023-01-10T13:09:07.412Z,10.70
2023-01-10T13:10:07.419Z,8.40
2023-01-10T13:11:08.454Z,8.40
2023-01-10T13:12:07.394Z,7.40
2023-01-10T13:13:07.391Z,8.40
2023-01-10T13:14:07.419Z,9.40